Aérodrome :
LOGIN :

S'inscrire | Disclaimer

   EN    FR    IT 

 










Légende :    VFR   VFR Marginal   IFR   IFR Intensif   IFR Très Intensif
Visi : 
Plafond : 
>= 8 km
>= 3000ft
5 à 8 km
1000 à 3000 ft
1500m à 5 km
500 à 1000 ft
800 à 1500m
200 à 500 ft
< 800m
< 200 ft
Symboles :   Orages  Brouillard  Fortes neiges  Fortes précipitations  Vent > 20 kt
SIGMETs :   Divers  Orages  Givrage  Turbulence  Onde Orograph.  Cendres Volcan.






- Altitude de l'aérodrome : 72 ft
- Code IATA : UDE


EHVK - Volkel Airbase

DERNIER METAR :
  • 210055Z AUTO 27003KT 9999 NCD 01/00 Q1033 BLU

METARs EXPIRÉS :
  • 210044Z AUTO 26005KT 9999 FEW008 SCT046 01/00 Q1033 BLU
  • 210032Z AUTO 28004KT 9999 FEW016 SCT022 BKN026 01/00 Q1033 WHT
  • 210025Z AUTO 27004KT 250V310 9999 SCT030 BKN035 OVC039 01/00 Q1033 BLU
  • 210016Z AUTO 27005KT 260V320 9999 -RA FEW014 SCT034 BKN039 01/00 Q1033 BLU
  • 210003Z AUTO 29005KT 260V010 9999 -UP FEW007 SCT015 BKN020 01/00 Q1033 WHT
  • 202325Z AUTO 28004KT 260V320 9999 FEW048 01/M00 Q1033 BLU
  • 202255Z AUTO 28005KT 9999 FEW051 01/M00 Q1032 BLU
  • 202225Z AUTO 28004KT 9999 FEW044 01/M00 Q1032 BLU

TAF TAF EHVK
Valide du 20 à 22h jusqu'au 21 à 10h UTC


202136Z 2022/2110 29005KT 9999 SCT040
PROB30
TEMPO 2106/2110 3500 -SHRASN SCT018 BKN025



MET'MAP, la Météo Aéronautique d'un coup d'oeil ! - Copyright ORBIFLY Décembre 2007 - Disclaimer

ORBIFLY MET'MAP TEAM :

Programmation & Développement : Alexandra Zaïnal
Sur une idée originale de : Baudouin d'Aumeries
Assistance à la programmation : Marc-Olivier Méhu
Soutien technique & logistique : Manuel Goepfert

Contact : metmap@orbifly.com




SOURCES & CREDITS :

   NOAA